sensor_id;sensor_type;location;lat;lon;timestamp;pressure;altitude;pressure_sealevel;temperature;humidity
77216;BME280;66210;53.282;9.864;2023-08-01T00:00:11;99274.16;;;15.26;99.45
77216;BME280;66210;53.282;9.864;2023-08-01T00:02:38;99266.50;;;15.28;99.28
77216;BME280;66210;53.282;9.864;2023-08-01T00:05:05;99269.91;;;15.27;99.54
77216;BME280;66210;53.282;9.864;2023-08-01T00:07:32;99255.38;;;15.20;99.28
77216;BME280;66210;53.282;9.864;2023-08-01T00:10:03;99254.53;;;15.19;99.39
77216;BME280;66210;53.282;9.864;2023-08-01T00:12:30;99257.09;;;15.24;99.27
77216;BME280;66210;53.282;9.864;2023-08-01T00:14:57;99248.56;;;15.22;99.30
77216;BME280;66210;53.282;9.864;2023-08-01T00:17:23;99246.88;;;15.25;99.52
77216;BME280;66210;53.282;9.864;2023-08-01T00:19:50;99242.63;;;15.26;99.29
77216;BME280;66210;53.282;9.864;2023-08-01T00:22:17;99234.06;;;15.24;99.66
77216;BME280;66210;53.282;9.864;2023-08-01T00:24:46;99234.94;;;15.27;99.43
77216;BME280;66210;53.282;9.864;2023-08-01T00:27:14;99221.28;;;15.28;99.51
77216;BME280;66210;53.282;9.864;2023-08-01T00:29:40;99211.06;;;15.28;99.50
77216;BME280;66210;53.282;9.864;2023-08-01T00:32:07;99211.06;;;15.28;99.47
77216;BME280;66210;53.282;9.864;2023-08-01T00:34:34;99197.41;;;15.26;99.34
77216;BME280;66210;53.282;9.864;2023-08-01T00:37:00;99190.56;;;15.27;99.53
77216;BME280;66210;53.282;9.864;2023-08-01T00:39:27;99181.19;;;15.21;99.33
77216;BME280;66210;53.282;9.864;2023-08-01T00:41:53;99181.19;;;15.24;99.59
77216;BME280;66210;53.282;9.864;2023-08-01T00:44:23;99182.91;;;15.28;99.46
77216;BME280;66210;53.282;9.864;2023-08-01T00:46:49;99181.19;;;15.29;99.61
77216;BME280;66210;53.282;9.864;2023-08-01T00:49:17;99176.94;;;15.31;99.84
77216;BME280;66210;53.282;9.864;2023-08-01T00:51:45;99170.97;;;15.24;99.44
77216;BME280;66210;53.282;9.864;2023-08-01T00:54:11;99183.78;;;15.32;99.50
77216;BME280;66210;53.282;9.864;2023-08-01T00:56:38;99178.66;;;15.33;99.37
77216;BME280;66210;53.282;9.864;2023-08-01T00:59:05;99165.84;;;15.26;99.51
77216;BME280;66210;53.282;9.864;2023-08-01T01:01:32;99165.84;;;15.35;99.66
77216;BME280;66210;53.282;9.864;2023-08-01T01:03:59;99168.44;;;15.36;99.92
77216;BME280;66210;53.282;9.864;2023-08-01T01:06:41;99171.00;;;15.38;100.00
77216;BME280;66210;53.282;9.864;2023-08-01T01:09:19;99151.34;;;15.31;100.00
77216;BME280;66210;53.282;9.864;2023-08-01T01:11:46;99147.13;;;15.36;99.91
77216;BME280;66210;53.282;9.864;2023-08-01T01:14:13;99129.16;;;15.28;99.94
77216;BME280;66210;53.282;9.864;2023-08-01T01:16:40;99141.13;;;15.38;100.00
77216;BME280;66210;53.282;9.864;2023-08-01T01:19:09;99151.34;;;15.45;100.00
77216;BME280;66210;53.282;9.864;2023-08-01T01:21:37;99131.75;;;15.37;100.00
77216;BME280;66210;53.282;9.864;2023-08-01T01:24:06;99143.69;;;15.48;100.00
77216;BME280;66210;53.282;9.864;2023-08-01T01:26:36;99138.59;;;15.49;100.00
77216;BME280;66210;53.282;9.864;2023-08-01T01:29:04;99138.59;;;15.54;100.00
77216;BME280;66210;53.282;9.864;2023-08-01T01:31:32;99126.63;;;15.47;100.00
77216;BME280;66210;53.282;9.864;2023-08-01T01:33:59;99138.59;;;15.58;100.00
77216;BME280;66210;53.282;9.864;2023-08-01T01:36:26;99115.56;;;15.49;100.00
77216;BME280;66210;53.282;9.864;2023-08-01T01:38:53;99116.41;;;15.56;100.00
77216;BME280;66210;53.282;9.864;2023-08-01T01:41:19;99094.22;;;15.46;100.00
77216;BME280;66210;53.282;9.864;2023-08-01T01:43:46;99093.34;;;15.53;100.00
77216;BME280;66210;53.282;9.864;2023-08-01T01:46:13;99104.41;;;15.63;100.00
77216;BME280;66210;53.282;9.864;2023-08-01T01:48:40;99104.44;;;15.67;100.00
77216;BME280;66210;53.282;9.864;2023-08-01T01:51:08;99104.44;;;15.69;100.00
77216;BME280;66210;53.282;9.864;2023-08-01T01:53:35;99059.22;;;15.42;100.00
77216;BME280;66210;53.282;9.864;2023-08-01T01:56:02;99105.31;;;15.71;100.00
77216;BME280;66210;53.282;9.864;2023-08-01T01:58:29;99091.63;;;15.66;100.00
77216;BME280;66210;53.282;9.864;2023-08-01T02:00:56;99082.22;;;15.65;100.00
77216;BME280;66210;53.282;9.864;2023-08-01T02:03:22;99091.66;;;15.73;100.00
77216;BME280;66210;53.282;9.864;2023-08-01T02:05:49;99089.97;;;15.74;100.00
77216;BME280;66210;53.282;9.864;2023-08-01T02:08:16;99077.97;;;15.67;100.00
77216;BME280;66210;53.282;9.864;2023-08-01T02:10:43;99085.66;;;15.68;100.00
77216;BME280;66210;53.282;9.864;2023-08-01T02:13:10;99097.63;;;15.75;100.00
77216;BME280;66210;53.282;9.864;2023-08-01T02:15:37;99048.16;;;15.47;100.00
77216;BME280;66210;53.282;9.864;2023-08-01T02:18:04;99082.28;;;15.72;100.00
77216;BME280;66210;53.282;9.864;2023-08-01T02:20:31;99074.59;;;15.77;100.00
77216;BME280;66210;53.282;9.864;2023-08-01T02:22:58;99061.75;;;15.69;100.00
77216;BME280;66210;53.282;9.864;2023-08-01T02:25:25;99046.44;;;15.54;100.00
77216;BME280;66210;53.282;9.864;2023-08-01T02:27:52;99075.44;;;15.73;100.00
77216;BME280;66210;53.282;9.864;2023-08-01T02:30:19;99080.53;;;15.77;100.00
77216;BME280;66210;53.282;9.864;2023-08-01T02:32:46;99061.78;;;15.74;100.00
77216;BME280;66210;53.282;9.864;2023-08-01T02:35:12;99053.22;;;15.69;100.00
77216;BME280;66210;53.282;9.864;2023-08-01T02:37:39;99060.06;;;15.77;100.00
77216;BME280;66210;53.282;9.864;2023-08-01T02:40:08;99054.94;;;15.73;100.00
77216;BME280;66210;53.282;9.864;2023-08-01T02:42:35;99070.31;;;15.79;100.00
77216;BME280;66210;53.282;9.864;2023-08-01T02:45:02;99047.25;;;15.70;100.00
77216;BME280;66210;53.282;9.864;2023-08-01T02:47:29;99037.03;;;15.64;100.00
77216;BME280;66210;53.282;9.864;2023-08-01T02:49:56;99029.34;;;15.57;100.00
77216;BME280;66210;53.282;9.864;2023-08-01T02:52:23;99048.97;;;15.71;100.00
77216;BME280;66210;53.282;9.864;2023-08-01T02:54:50;99051.56;;;15.74;100.00
77216;BME280;66210;53.282;9.864;2023-08-01T02:57:17;99053.22;;;15.78;100.00
77216;BME280;66210;53.282;9.864;2023-08-01T02:59:44;99032.72;;;15.69;100.00
77216;BME280;66210;53.282;9.864;2023-08-01T03:02:10;99012.28;;;15.56;100.00
77216;BME280;66210;53.282;9.864;2023-08-01T03:04:37;99025.94;;;15.62;100.00
77216;BME280;66210;53.282;9.864;2023-08-01T03:07:13;99048.13;;;15.73;100.00
77216;BME280;66210;53.282;9.864;2023-08-01T03:09:40;99011.44;;;15.54;100.00
77216;BME280;66210;53.282;9.864;2023-08-01T03:12:09;99011.44;;;15.61;100.00
77216;BME280;66210;53.282;9.864;2023-08-01T03:14:36;98997.78;;;15.52;100.00
77216;BME280;66210;53.282;9.864;2023-08-01T03:17:03;98991.81;;;15.53;100.00
77216;BME280;66210;53.282;9.864;2023-08-01T03:19:30;99023.34;;;15.68;100.00
77216;BME280;66210;53.282;9.864;2023-08-01T03:21:57;99025.91;;;15.68;100.00
77216;BME280;66210;53.282;9.864;2023-08-01T03:24:24;99002.88;;;15.55;100.00
77216;BME280;66210;53.282;9.864;2023-08-01T03:26:51;99024.22;;;15.70;100.00
77216;BME280;66210;53.282;9.864;2023-08-01T03:29:18;98978.19;;;15.41;100.00
77216;BME280;66210;53.282;9.864;2023-08-01T03:31:45;99002.88;;;15.60;100.00
77216;BME280;66210;53.282;9.864;2023-08-01T03:34:12;98976.47;;;15.46;100.00
77216;BME280;66210;53.282;9.864;2023-08-01T03:36:39;99006.31;;;15.65;100.00
77216;BME280;66210;53.282;9.864;2023-08-01T03:39:06;98998.63;;;15.59;100.00
77216;BME280;66210;53.282;9.864;2023-08-01T03:41:33;98995.22;;;15.55;100.00
77216;BME280;66210;53.282;9.864;2023-08-01T03:44:00;99008.00;;;15.65;100.00
77216;BME280;66210;53.282;9.864;2023-08-01T03:46:26;99001.19;;;15.59;100.00
77216;BME280;66210;53.282;9.864;2023-08-01T03:48:53;98996.91;;;15.58;100.00
77216;BME280;66210;53.282;9.864;2023-08-01T03:51:20;99002.03;;;15.59;100.00
77216;BME280;66210;53.282;9.864;2023-08-01T03:53:47;98973.91;;;15.44;100.00
77216;BME280;66210;53.282;9.864;2023-08-01T03:56:29;99003.75;;;15.59;100.00
77216;BME280;66210;53.282;9.864;2023-08-01T03:58:55;98984.13;;;15.50;100.00
77216;BME280;66210;53.282;9.864;2023-08-01T04:01:22;99011.41;;;15.64;100.00
77216;BME280;66210;53.282;9.864;2023-08-01T04:03:49;99013.97;;;15.64;100.00
77216;BME280;66210;53.282;9.864;2023-08-01T04:06:16;99000.31;;;15.62;100.00
77216;BME280;66210;53.282;9.864;2023-08-01T04:08:43;99016.53;;;15.64;100.00
77216;BME280;66210;53.282;9.864;2023-08-01T04:11:09;99020.81;;;15.68;100.00
77216;BME280;66210;53.282;9.864;2023-08-01T04:13:37;99003.75;;;15.56;100.00
77216;BME280;66210;53.282;9.864;2023-08-01T04:16:04;99011.41;;;15.64;100.00
77216;BME280;66210;53.282;9.864;2023-08-01T04:18:31;99011.41;;;15.57;100.00
77216;BME280;66210;53.282;9.864;2023-08-01T04:20:58;99006.31;;;15.61;100.00
77216;BME280;66210;53.282;9.864;2023-08-01T04:23:25;99009.72;;;15.59;100.00
77216;BME280;66210;53.282;9.864;2023-08-01T04:25:51;99003.75;;;15.57;100.00
77216;BME280;66210;53.282;9.864;2023-08-01T04:28:18;99007.16;;;15.59;100.00
77216;BME280;66210;53.282;9.864;2023-08-01T04:30:51;99002.03;;;15.55;100.00
77216;BME280;66210;53.282;9.864;2023-08-01T04:33:18;99013.16;;;15.58;100.00
77216;BME280;66210;53.282;9.864;2023-08-01T04:35:45;99017.41;;;15.61;100.00
77216;BME280;66210;53.282;9.864;2023-08-01T04:38:15;99002.91;;;15.52;100.00
77216;BME280;66210;53.282;9.864;2023-08-01T04:40:42;98970.53;;;15.36;100.00
77216;BME280;66210;53.282;9.864;2023-08-01T04:43:10;99008.88;;;15.61;100.00
77216;BME280;66210;53.282;9.864;2023-08-01T04:45:36;98979.03;;;15.41;100.00
77216;BME280;66210;53.282;9.864;2023-08-01T04:48:03;99009.72;;;15.58;100.00
77216;BME280;66210;53.282;9.864;2023-08-01T04:50:30;99002.88;;;15.55;100.00
77216;BME280;66210;53.282;9.864;2023-08-01T04:52:57;99014.84;;;15.61;100.00
77216;BME280;66210;53.282;9.864;2023-08-01T04:55:23;98980.75;;;15.45;100.00
77216;BME280;66210;53.282;9.864;2023-08-01T04:57:50;98965.41;;;15.34;100.00
77216;BME280;66210;53.282;9.864;2023-08-01T05:00:17;98967.13;;;15.34;100.00
77216;BME280;66210;53.282;9.864;2023-08-01T05:02:44;99002.88;;;15.60;100.00
77216;BME280;66210;53.282;9.864;2023-08-01T05:05:11;98996.09;;;15.54;100.00
77216;BME280;66210;53.282;9.864;2023-08-01T05:07:38;98993.50;;;15.59;100.00
77216;BME280;66210;53.282;9.864;2023-08-01T05:10:04;98989.25;;;15.53;100.00
77216;BME280;66210;53.282;9.864;2023-08-01T05:12:31;99008.88;;;15.61;100.00
77216;BME280;66210;53.282;9.864;2023-08-01T05:14:58;98975.63;;;15.34;100.00
77216;BME280;66210;53.282;9.864;2023-08-01T05:17:24;99011.44;;;15.59;100.00
77216;BME280;66210;53.282;9.864;2023-08-01T05:19:51;98986.69;;;15.44;100.00
77216;BME280;66210;53.282;9.864;2023-08-01T05:22:18;99010.59;;;15.58;100.00
77216;BME280;66210;53.282;9.864;2023-08-01T05:24:44;99009.72;;;15.59;100.00
77216;BME280;66210;53.282;9.864;2023-08-01T05:27:11;99005.47;;;15.58;100.00
77216;BME280;66210;53.282;9.864;2023-08-01T05:29:38;99002.88;;;15.55;100.00
77216;BME280;66210;53.282;9.864;2023-08-01T05:32:05;99003.75;;;15.54;100.00
77216;BME280;66210;53.282;9.864;2023-08-01T05:34:32;98975.63;;;15.37;100.00
77216;BME280;66210;53.282;9.864;2023-08-01T05:36:59;98996.94;;;15.52;100.00
77216;BME280;66210;53.282;9.864;2023-08-01T05:39:26;99001.19;;;15.53;100.00
77216;BME280;66210;53.282;9.864;2023-08-01T05:41:53;98969.66;;;15.37;100.00
77216;BME280;66210;53.282;9.864;2023-08-01T05:44:20;98962.84;;;15.39;100.00
77216;BME280;66210;53.282;9.864;2023-08-01T05:46:47;99008.84;;;15.64;100.00
77216;BME280;66210;53.282;9.864;2023-08-01T05:49:14;98989.25;;;15.49;100.00
77216;BME280;66210;53.282;9.864;2023-08-01T05:51:41;98988.41;;;15.50;100.00
77216;BME280;66210;53.282;9.864;2023-08-01T05:54:08;98991.81;;;15.49;100.00
77216;BME280;66210;53.282;9.864;2023-08-01T05:56:35;99003.75;;;15.57;100.00
77216;BME280;66210;53.282;9.864;2023-08-01T05:59:02;99004.59;;;15.55;100.00
77216;BME280;66210;53.282;9.864;2023-08-01T06:01:30;99003.75;;;15.57;100.00
77216;BME280;66210;53.282;9.864;2023-08-01T06:03:57;99005.44;;;15.55;100.00
77216;BME280;66210;53.282;9.864;2023-08-01T06:06:24;99009.72;;;15.59;100.00
77216;BME280;66210;53.282;9.864;2023-08-01T06:08:51;98998.63;;;15.47;100.00
77216;BME280;66210;53.282;9.864;2023-08-01T06:11:18;98987.56;;;15.46;100.00
77216;BME280;66210;53.282;9.864;2023-08-01T06:13:45;99002.91;;;15.58;100.00
77216;BME280;66210;53.282;9.864;2023-08-01T06:16:12;98996.09;;;15.54;100.00
77216;BME280;66210;53.282;9.864;2023-08-01T06:18:39;98997.75;;;15.62;100.00
77216;BME280;66210;53.282;9.864;2023-08-01T06:21:06;98962.84;;;15.39;100.00
77216;BME280;66210;53.282;9.864;2023-08-01T06:23:33;98993.53;;;15.54;100.00
77216;BME280;66210;53.282;9.864;2023-08-01T06:26:00;99032.75;;;15.66;100.00
77216;BME280;66210;53.282;9.864;2023-08-01T06:28:27;99008.88;;;15.47;100.00
77216;BME280;66210;53.282;9.864;2023-08-01T06:30:54;99032.75;;;15.61;100.00
77216;BME280;66210;53.282;9.864;2023-08-01T06:33:21;99014.84;;;15.49;100.00
77216;BME280;66210;53.282;9.864;2023-08-01T06:35:48;99033.63;;;15.57;99.99
77216;BME280;66210;53.282;9.864;2023-08-01T06:38:14;99025.09;;;15.50;100.00
77216;BME280;66210;53.282;9.864;2023-08-01T06:40:41;99035.34;;;15.56;100.00
77216;BME280;66210;53.282;9.864;2023-08-01T06:43:08;99049.84;;;15.54;100.00
77216;BME280;66210;53.282;9.864;2023-08-01T06:45:35;99018.28;;;15.35;100.00
77216;BME280;66210;53.282;9.864;2023-08-01T06:48:02;99043.00;;;15.50;100.00
77216;BME280;66210;53.282;9.864;2023-08-01T06:50:29;99037.91;;;15.52;99.91
77216;BME280;66210;53.282;9.864;2023-08-01T06:52:56;99022.53;;;15.44;99.92
77216;BME280;66210;53.282;9.864;2023-08-01T06:55:23;99025.09;;;15.49;99.97
77216;BME280;66210;53.282;9.864;2023-08-01T06:57:50;99037.91;;;15.56;99.80
77216;BME280;66210;53.282;9.864;2023-08-01T07:00:17;99039.59;;;15.59;99.91
77216;BME280;66210;53.282;9.864;2023-08-01T07:02:44;99027.66;;;15.49;99.48
77216;BME280;66210;53.282;9.864;2023-08-01T07:05:11;99006.34;;;15.36;99.11
77216;BME280;66210;53.282;9.864;2023-08-01T07:07:38;99034.50;;;15.56;99.71
77216;BME280;66210;53.282;9.864;2023-08-01T07:10:05;99031.06;;;15.48;99.69
77216;BME280;66210;53.282;9.864;2023-08-01T07:12:32;99036.19;;;15.58;99.70
77216;BME280;66210;53.282;9.864;2023-08-01T07:14:59;99037.88;;;15.59;99.24
77216;BME280;66210;53.282;9.864;2023-08-01T07:17:28;99031.06;;;15.57;99.12
77216;BME280;66210;53.282;9.864;2023-08-01T07:19:55;98996.09;;;15.33;99.46
77216;BME280;66210;53.282;9.864;2023-08-01T07:22:22;99020.00;;;15.43;99.08
77216;BME280;66210;53.282;9.864;2023-08-01T07:24:53;99042.97;;;15.63;99.11
77216;BME280;66210;53.282;9.864;2023-08-01T07:27:21;99037.88;;;15.61;99.09
77216;BME280;66210;53.282;9.864;2023-08-01T07:29:47;99039.59;;;15.57;98.89
77216;BME280;66210;53.282;9.864;2023-08-01T07:32:14;99030.19;;;15.53;99.28
77216;BME280;66210;53.282;9.864;2023-08-01T07:34:41;99046.41;;;15.63;99.31
77216;BME280;66210;53.282;9.864;2023-08-01T07:37:09;99010.59;;;15.43;99.39
77216;BME280;66210;53.282;9.864;2023-08-01T07:39:35;99003.81;;;15.36;99.12
77216;BME280;66210;53.282;9.864;2023-08-01T07:42:02;99033.63;;;15.57;99.27
77216;BME280;66210;53.282;9.864;2023-08-01T07:44:30;99031.91;;;15.61;99.15
77216;BME280;66210;53.282;9.864;2023-08-01T07:46:57;98995.25;;;15.37;99.28
77216;BME280;66210;53.282;9.864;2023-08-01T07:49:24;99046.38;;;15.69;99.03
77216;BME280;66210;53.282;9.864;2023-08-01T07:51:51;99040.41;;;15.70;99.02
77216;BME280;66210;53.282;9.864;2023-08-01T07:54:18;99021.69;;;15.61;100.00
77216;BME280;66210;53.282;9.864;2023-08-01T07:56:44;99049.78;;;15.87;100.00
77216;BME280;66210;53.282;9.864;2023-08-01T07:59:15;99040.41;;;15.90;99.76
77216;BME280;66210;53.282;9.864;2023-08-01T08:01:43;99047.16;;;16.11;99.37
77216;BME280;66210;53.282;9.864;2023-08-01T08:04:09;99042.84;;;16.18;99.74
77216;BME280;66210;53.282;9.864;2023-08-01T08:06:36;99010.47;;;16.06;99.25
77216;BME280;66210;53.282;9.864;2023-08-01T08:09:04;99012.13;;;16.12;98.68
77216;BME280;66210;53.282;9.864;2023-08-01T08:11:31;99050.47;;;16.32;98.79
77216;BME280;66210;53.282;9.864;2023-08-01T08:13:57;99042.81;;;16.29;98.63
77216;BME280;66210;53.282;9.864;2023-08-01T08:16:24;99025.75;;;16.18;98.97
77216;BME280;66210;53.282;9.864;2023-08-01T08:18:51;99015.47;;;16.31;99.22
77216;BME280;66210;53.282;9.864;2023-08-01T08:21:18;99044.31;;;16.63;98.63
77216;BME280;66210;53.282;9.864;2023-08-01T08:23:44;99011.81;;;16.73;98.46
77216;BME280;66210;53.282;9.864;2023-08-01T08:26:11;98996.31;;;16.90;98.46
77216;BME280;66210;53.282;9.864;2023-08-01T08:28:38;99021.72;;;17.22;96.48
77216;BME280;66210;53.282;9.864;2023-08-01T08:31:24;99048.06;;;17.41;94.45
77216;BME280;66210;53.282;9.864;2023-08-01T08:33:51;99006.28;;;17.27;94.66
77216;BME280;66210;53.282;9.864;2023-08-01T08:36:17;99009.72;;;17.24;94.53
77216;BME280;66210;53.282;9.864;2023-08-01T08:38:44;99042.97;;;17.40;94.30
77216;BME280;66210;53.282;9.864;2023-08-01T08:41:14;99048.94;;;17.40;95.17
77216;BME280;66210;53.282;9.864;2023-08-01T08:43:47;99037.88;;;17.34;95.10
77216;BME280;66210;53.282;9.864;2023-08-01T08:46:16;99015.78;;;17.14;95.68
77216;BME280;66210;53.282;9.864;2023-08-01T08:48:43;99048.25;;;17.21;95.73
77216;BME280;66210;53.282;9.864;2023-08-01T08:51:12;99050.91;;;17.08;95.61
77216;BME280;66210;53.282;9.864;2023-08-01T08:53:40;99010.94;;;16.76;95.95
77216;BME280;66210;53.282;9.864;2023-08-01T08:56:08;99058.72;;;16.92;96.73
77216;BME280;66210;53.282;9.864;2023-08-01T08:58:36;99028.06;;;16.71;96.97
77216;BME280;66210;53.282;9.864;2023-08-01T09:01:05;99049.41;;;16.77;96.79
77216;BME280;66210;53.282;9.864;2023-08-01T09:03:32;99051.13;;;16.80;97.09
77216;BME280;66210;53.282;9.864;2023-08-01T09:06:03;99032.34;;;16.67;97.19
77216;BME280;66210;53.282;9.864;2023-08-01T09:08:35;99047.59;;;16.95;97.28
77216;BME280;66210;53.282;9.864;2023-08-01T09:11:03;99032.19;;;16.95;97.35
77216;BME280;66210;53.282;9.864;2023-08-01T09:13:31;99037.13;;;17.19;96.55
77216;BME280;66210;53.282;9.864;2023-08-01T09:16:01;99031.81;;;17.39;96.60
77216;BME280;66210;53.282;9.864;2023-08-01T09:18:30;99050.34;;;17.71;96.12
77216;BME280;66210;53.282;9.864;2023-08-01T09:20:57;99052.59;;;18.04;96.12
77216;BME280;66210;53.282;9.864;2023-08-01T09:23:28;99030.97;;;18.22;93.21
77216;BME280;66210;53.282;9.864;2023-08-01T09:25:56;99060.38;;;18.68;92.84
77216;BME280;66210;53.282;9.864;2023-08-01T09:28:26;99043.34;;;18.59;91.43
77216;BME280;66210;53.282;9.864;2023-08-01T09:30:55;99060.34;;;18.69;90.73
77216;BME280;66210;53.282;9.864;2023-08-01T09:33:23;99041.53;;;18.64;90.22
77216;BME280;66210;53.282;9.864;2023-08-01T09:35:50;99045.66;;;18.79;90.27
77216;BME280;66210;53.282;9.864;2023-08-01T09:38:17;99029.28;;;18.85;88.49
77216;BME280;66210;53.282;9.864;2023-08-01T09:40:45;99023.81;;;19.03;89.02
77216;BME280;66210;53.282;9.864;2023-08-01T09:43:13;99051.00;;;19.21;88.46
77216;BME280;66210;53.282;9.864;2023-08-01T09:45:53;99040.09;;;19.05;88.28
77216;BME280;66210;53.282;9.864;2023-08-01T09:48:24;99047.66;;;19.16;89.10
77216;BME280;66210;53.282;9.864;2023-08-01T09:51:03;99057.44;;;19.48;88.21
77216;BME280;66210;53.282;9.864;2023-08-01T09:53:31;99043.28;;;19.72;86.12
77216;BME280;66210;53.282;9.864;2023-08-01T09:56:00;99034.41;;;19.89;84.61
77216;BME280;66210;53.282;9.864;2023-08-01T09:58:34;99006.78;;;19.94;84.30
77216;BME280;66210;53.282;9.864;2023-08-01T10:01:01;99034.88;;;20.06;83.45
77216;BME280;66210;53.282;9.864;2023-08-01T10:03:28;99049.59;;;20.01;83.52
77216;BME280;66210;53.282;9.864;2023-08-01T10:05:56;99040.41;;;19.89;83.45
77216;BME280;66210;53.282;9.864;2023-08-01T10:08:24;99055.59;;;20.02;82.44
77216;BME280;66210;53.282;9.864;2023-08-01T10:10:51;99028.03;;;20.07;82.65
77216;BME280;66210;53.282;9.864;2023-08-01T10:13:20;99055.09;;;20.28;81.88
77216;BME280;66210;53.282;9.864;2023-08-01T10:15:50;99036.53;;;20.10;81.75
77216;BME280;66210;53.282;9.864;2023-08-01T10:18:18;99037.44;;;20.09;80.12
77216;BME280;66210;53.282;9.864;2023-08-01T10:20:46;99032.69;;;19.86;81.10
77216;BME280;66210;53.282;9.864;2023-08-01T10:23:14;99027.81;;;19.72;81.49
77216;BME280;66210;53.282;9.864;2023-08-01T10:25:41;99012.91;;;19.40;82.27
77216;BME280;66210;53.282;9.864;2023-08-01T10:28:08;99030.50;;;19.66;82.55
77216;BME280;66210;53.282;9.864;2023-08-01T10:30:35;99018.78;;;19.95;77.42
77216;BME280;66210;53.282;9.864;2023-08-01T10:33:02;99015.97;;;20.07;79.14
77216;BME280;66210;53.282;9.864;2023-08-01T10:35:36;99016.50;;;20.23;77.66
77216;BME280;66210;53.282;9.864;2023-08-01T10:38:10;99033.13;;;20.49;76.28
77216;BME280;66210;53.282;9.864;2023-08-01T10:40:42;99038.28;;;20.89;75.69
77216;BME280;66210;53.282;9.864;2023-08-01T10:43:22;99028.13;;;21.19;74.77
77216;BME280;66210;53.282;9.864;2023-08-01T10:46:02;99027.06;;;21.26;72.82
77216;BME280;66210;53.282;9.864;2023-08-01T10:48:30;99010.69;;;20.91;73.99
77216;BME280;66210;53.282;9.864;2023-08-01T10:50:57;99025.69;;;20.75;74.36
77216;BME280;66210;53.282;9.864;2023-08-01T10:53:24;99030.31;;;20.63;75.05
77216;BME280;66210;53.282;9.864;2023-08-01T10:55:51;99023.50;;;20.59;75.70
77216;BME280;66210;53.282;9.864;2023-08-01T10:58:18;99018.44;;;20.91;74.04
77216;BME280;66210;53.282;9.864;2023-08-01T11:00:45;99009.50;;;21.41;73.43
77216;BME280;66210;53.282;9.864;2023-08-01T11:03:12;99003.69;;;21.65;72.70
77216;BME280;66210;53.282;9.864;2023-08-01T11:05:39;99030.44;;;21.64;70.70
77216;BME280;66210;53.282;9.864;2023-08-01T11:08:06;99013.38;;;21.23;71.34
77216;BME280;66210;53.282;9.864;2023-08-01T11:10:33;99006.72;;;20.78;73.36
77216;BME280;66210;53.282;9.864;2023-08-01T11:13:00;99049.53;;;20.46;73.74
77216;BME280;66210;53.282;9.864;2023-08-01T11:15:27;99036.38;;;19.75;74.82
77216;BME280;66210;53.282;9.864;2023-08-01T11:17:55;99108.47;;;19.23;76.91
77216;BME280;66210;53.282;9.864;2023-08-01T11:20:24;99064.91;;;18.49;78.25
77216;BME280;66210;53.282;9.864;2023-08-01T11:25:37;99088.13;;;17.61;82.07
77216;BME280;66210;53.282;9.864;2023-08-01T11:28:08;99102.03;;;17.38;83.45
77216;BME280;66210;53.282;9.864;2023-08-01T11:30:36;99095.31;;;17.19;84.59
77216;BME280;66210;53.282;9.864;2023-08-01T11:33:13;99069.78;;;16.99;85.02
77216;BME280;66210;53.282;9.864;2023-08-01T11:35:41;99045.13;;;16.82;85.66
77216;BME280;66210;53.282;9.864;2023-08-01T11:38:08;99085.97;;;17.10;85.93
77216;BME280;66210;53.282;9.864;2023-08-01T11:40:35;99082.53;;;17.16;86.46
77216;BME280;66210;53.282;9.864;2023-08-01T11:43:03;99084.16;;;17.21;86.04
77216;BME280;66210;53.282;9.864;2023-08-01T11:45:30;99082.38;;;17.36;86.87
77216;BME280;66210;53.282;9.864;2023-08-01T11:47:56;99080.34;;;17.72;86.45
77216;BME280;66210;53.282;9.864;2023-08-01T11:50:25;99075.59;;;18.15;87.34
77216;BME280;66210;53.282;9.864;2023-08-01T11:52:52;99076.66;;;18.67;87.49
77216;BME280;66210;53.282;9.864;2023-08-01T11:55:21;99033.50;;;18.89;85.86
77216;BME280;66210;53.282;9.864;2023-08-01T11:57:55;99079.88;;;19.40;84.25
77216;BME280;66210;53.282;9.864;2023-08-01T12:00:27;99074.94;;;19.28;84.07
77216;BME280;66210;53.282;9.864;2023-08-01T12:03:10;99053.19;;;18.90;84.51
77216;BME280;66210;53.282;9.864;2023-08-01T12:05:40;99075.81;;;18.66;85.11
77216;BME280;66210;53.282;9.864;2023-08-01T12:08:12;99088.94;;;18.46;85.87
77216;BME280;66210;53.282;9.864;2023-08-01T12:10:44;99082.47;;;18.13;86.52
77216;BME280;66210;53.282;9.864;2023-08-01T12:13:22;99083.75;;;17.71;87.80
77216;BME280;66210;53.282;9.864;2023-08-01T12:15:50;99103.66;;;17.44;89.11
77216;BME280;66210;53.282;9.864;2023-08-01T12:18:25;99056.06;;;17.06;90.97
77216;BME280;66210;53.282;9.864;2023-08-01T12:20:55;99092.63;;;17.33;90.33
77216;BME280;66210;53.282;9.864;2023-08-01T12:23:22;99092.44;;;17.57;91.45
77216;BME280;66210;53.282;9.864;2023-08-01T12:25:49;99087.09;;;17.83;91.82
77216;BME280;66210;53.282;9.864;2023-08-01T12:28:16;99101.97;;;18.31;91.21
77216;BME280;66210;53.282;9.864;2023-08-01T12:30:43;99093.97;;;18.54;90.28
77216;BME280;66210;53.282;9.864;2023-08-01T12:33:10;99078.41;;;18.66;89.54
77216;BME280;66210;53.282;9.864;2023-08-01T12:35:40;99094.50;;;18.82;88.16
77216;BME280;66210;53.282;9.864;2023-08-01T12:38:08;99113.28;;;18.87;88.30
77216;BME280;66210;53.282;9.864;2023-08-01T12:40:36;99102.22;;;18.84;88.53
77216;BME280;66210;53.282;9.864;2023-08-01T12:43:02;99064.63;;;18.70;89.02
77216;BME280;66210;53.282;9.864;2023-08-01T12:45:29;99064.31;;;18.95;88.73
77216;BME280;66210;53.282;9.864;2023-08-01T12:47:56;99080.16;;;19.23;89.18
77216;BME280;66210;53.282;9.864;2023-08-01T12:50:23;99074.00;;;19.34;88.17
77216;BME280;66210;53.282;9.864;2023-08-01T12:52:49;99099.44;;;19.52;87.37
77216;BME280;66210;53.282;9.864;2023-08-01T12:55:16;99090.69;;;19.62;85.80
77216;BME280;66210;53.282;9.864;2023-08-01T12:57:50;99065.34;;;19.36;85.74
77216;BME280;66210;53.282;9.864;2023-08-01T13:00:17;99116.63;;;19.50;86.15